Terminal Aerodrome Forecast
Issued by NWS Bismarck, ND

Home | Current Version | Previous Version | Graphics & Text | Print | Product List | Glossary On
Versions: 1 2 3 4 5 6 7 8 9 10 11 12 13 14
000
FTUS43 KBIS 281726
TAFBIS
TAF
KBIS 281726Z 2818/2918 25025G40KT P6SM BKN045
     FM282000 26032G45KT P6SM BKN050
     FM290200 28020KT P6SM BKN060
     FM291600 29025G34KT P6SM SCT100=

USA.gov is the U.S. government's official web portal to all federal, state and local government web resources and services.